Pollock, ID

12:31 AM PDT on October 26, 2014 (GMT -0700)
Idaho Cnty AP, Grangeville, I | Change Station
CLOSE
Current Station
Airport
Location: Idaho Cnty AP, Grangeville, I,
Elevation: 3314 ft
Nearby Weather Stations

Elev 3314 ft 45.94 °N, 116.12 °W | Updated 16 minutes ago

Mostly Cloudy
Mostly Cloudy
54 °F
Feels Like 54 °F
N
13
Wind Variable Wind from WSW
Gusts 20 mph

Today
High -- | Low -- °F
--% Chance of Precip.
Yesterday
High -- | Low -- °F
Precip. -- in
7:16 AM 5:41 PM
Waxing Crescent, 6% visible
Pressure 29.80 in
Visibility 10.0 miles
Clouds Clear
Dew Point 36 °F
Humidity 50%
Rainfall 0.00 in
Snow Depth Not available.
UV 0 out of 12
Pollen 2.40 out of 12
PM2.5 Good
Flu Activity No Activity
METAR KGIC 260715Z AUTO 24011G17KT 10SM CLR 12/02 A2980 RMK AO1 T01220021

More Conditions Fewer Conditions

Pressure 29.80 in
Visibility 10.0 miles
Clouds Clear
Dew Point 36 °F
Humidity 50%
Rainfall 0.00 in
Snow Depth Not available.
UV 0 out of 12
Pollen 2.40 out of 12
PM2.5 Good
Flu Activity No Activity
METAR KGIC 260715Z AUTO 24011G17KT 10SM CLR 12/02 A2980 RMK AO1 T01220021

More Conditions Fewer Conditions

10-Day Weather Forecast

Almanac

Astronomy

Oct. 26, 2014 Rise Set
Actual Time 7:16 AM PDT 5:41 PM PDT
Civil Twilight 6:45 AM PDT 6:12 PM PDT
Nautical Twilight 6:11 AM PDT 6:46 PM PDT
Astronomical Twilight 5:37 AM PDT 7:20 PM PDT
Moon 10:03 AM PDT 7:51 PM PDT
Length of Visible Light 11h 26m
Length of Day
10h 25m
Tomorrow will be 2m 55s shorter.
Waxing Crescent, 6% of the Moon is Illuminated
Today
Waxing Crescent
Oct 30
First Quarter
Nov 6
Full
Nov 14
Last Quarter
Nov 22
New

Today's Extremes

State Highs State Lows

Community

WunderPhotos

Upload Photos

1,765,115 photos uploaded!

Nearby

Air Quality

  Air Quality AQ Index Pollutant
Yesterday Good
PM2.5
Current Good
PM2.5
Saturday Good
PM2.5
Sunday Good
PM2.5
Monday Good
PM2.5

Snow Depth

Station Depth Elevation
Secesh Summit 0 in 6520 ft
Bear Basin 0 in 5350 ft
Squaw Flat 1 in 6240 ft
Long Valley 0 in 4890 ft
Big Creek Summit 2 in 6580 ft

Earthquake Activity

City Distance Mag. Time & Date
No recent earthquake activity has been reported nearby.
Minimum magnitude displayed is 2.5.

Coastal Water Temperatures

Place Temperature
No Stations Reporting

Nearby Weather Stations